Aérodrome :
LOGIN :

S'inscrire | Disclaimer

   EN    FR    IT 

 










Légende :    VFR   VFR Marginal   IFR   IFR Intensif   IFR Très Intensif
Visi : 
Plafond : 
>= 8 km
>= 3000ft
5 à 8 km
1000 à 3000 ft
1500m à 5 km
500 à 1000 ft
800 à 1500m
200 à 500 ft
< 800m
< 200 ft
Symboles :   Orages  Brouillard  Fortes neiges  Fortes précipitations  Vent > 20 kt
SIGMETs :   Divers  Orages  Givrage  Turbulence  Onde Orograph.  Cendres Volcan.







- Altitude de l'aérodrome : 202 ft
- Code IATA : LGW
- Voir les cartes d'approche


EGKK - London Gatwick

DERNIER METAR :
  • 190120Z 12005KT CAVOK 02/M01 Q1011

METARs EXPIRÉS :
  • 190050Z 13007KT CAVOK 03/M01 Q1012
  • 190020Z 13006KT CAVOK 03/M01 Q1012
  • 182350Z 13005KT CAVOK 03/M01 Q1012
  • 182320Z 13006KT CAVOK 03/M01 Q1012
  • 182250Z 15005KT CAVOK 03/M01 Q1012

TAF TAF EGKK
Valide du 19 à 00h jusqu'au 20 à 06h UTC


182302Z 1900/2006 12006KT 9999 FEW035
BECMG 1900/1903 BKN010
TEMPO 1902/2006 6000 -RADZ
BECMG 1903/1906 BKN008
PROB30
TEMPO 1903/1922 4000 RADZ
PROB30
TEMPO 1906/2006 BKN004
Pas de NOTAMs connus pour ce terrain.



MET'MAP, la Météo Aéronautique d'un coup d'oeil ! - Copyright ORBIFLY Décembre 2007 - Disclaimer

ORBIFLY MET'MAP TEAM :

Programmation & Développement : Alexandra Zaïnal
Conception & Développement : Baudouin d'Aumeries
Co-Programmation & Développement : Marc-Olivier Méhu
Soutien technique & logistique : Manuel Goepfert

Contact : metmap@orbifly.com




SOURCES & CREDITS :

   NOAA